.
WxDataArchive / Data Records for 2012-01-03
2012-01-02 January 2012 2012-01-04

Data Records for Tuesday, 03 January 2012

Time	Temp	Chill	HIndex	Humid	Dewpt	 Wind 	HiWind	WindDir	Rain 	Barom 
-----	----	-----	------	-----	-----	------	------	-------	-----	----- 
00:00	21.8	21.8	21.8	65	11.9	1	4	270	0.00	30.260 
00:05	21.8	21.8	21.8	63	11.2	2	6	338	0.00	30.260 
00:10	21.6	21.6	21.6	63	11.0	1	5	338	0.00	30.260 
00:15	21.6	21.6	21.6	63	11.0	1	4	338	0.00	30.264 
00:20	21.6	21.6	21.6	62	10.6	2	6	292	0.00	30.264 
00:25	21.4	21.4	21.4	61	10.1	2	7	292	0.00	30.264 
00:30	21.4	21.4	21.4	61	10.1	1	4	315	0.00	30.270 
00:35	21.4	21.4	21.4	61	10.1	1	4	315	0.00	30.270 
00:40	21.3	21.3	21.3	61	10.0	1	4	338	0.00	30.270 
00:45	21.3	21.3	21.3	61	10.0	1	7	270	0.00	30.271 
00:50	21.1	21.1	21.1	62	10.1	0	2	315	0.00	30.271 
00:55	21.1	21.1	21.1	61	9.8	1	4	270	0.00	30.271 
01:00	21.0	21.0	21.0	61	9.7	1	6	270	0.00	30.276 
01:05	20.8	20.8	20.8	61	9.5	2	4	270	0.00	30.276 
01:10	20.6	20.6	20.6	61	9.3	2	4	315	0.00	30.276 
01:15	20.6	20.6	20.6	61	9.3	1	4	292	0.00	30.276 
01:20	20.6	20.6	20.6	61	9.3	1	5	270	0.00	30.276 
01:25	20.5	20.5	20.5	61	9.2	2	5	338	0.00	30.276 
01:30	20.5	20.5	20.5	60	8.9	1	6	270	0.00	30.282 
01:35	20.5	20.5	20.5	61	9.2	1	4	270	0.00	30.282 
01:40	20.3	20.3	20.3	61	9.0	1	4	270	0.00	30.282 
01:45	20.3	20.3	20.3	59	8.3	1	3	292	0.00	30.287 
01:50	20.3	20.3	20.3	60	8.7	1	2	270	0.00	30.287 
01:55	20.2	20.2	20.2	60	8.6	0	3	292	0.00	30.287 
02:00	20.0	20.0	20.0	59	8.0	1	4	315	0.00	30.293 
02:05	19.9	19.9	19.9	60	8.3	1	3	292	0.00	30.293 
02:10	19.9	19.9	19.9	60	8.3	1	4	338	0.00	30.293 
02:15	19.7	19.7	19.7	60	8.1	1	5	270	0.00	30.297 
02:20	19.5	19.5	19.5	61	8.3	0	4	270	0.00	30.297 
02:25	19.5	19.5	19.5	61	8.3	1	3	270	0.00	30.297 
02:30	19.5	19.5	19.5	62	8.6	1	3	270	0.00	30.303 
02:35	19.5	19.5	19.5	62	8.6	0	2	338	0.00	30.303 
02:40	19.5	19.5	19.5	62	8.6	1	4	270	0.00	30.303 
02:45	19.5	19.5	19.5	62	8.6	1	4	270	0.00	30.307 
02:50	19.5	19.5	19.5	62	8.6	1	4	292	0.00	30.307 
02:55	19.5	19.5	19.5	62	8.6	1	6	292	0.00	30.307 
03:00	19.5	19.5	19.5	62	8.6	0	4	292	0.00	30.311 
03:05	19.5	19.5	19.5	62	8.6	1	3	270	0.00	30.311 
03:10	19.5	19.5	19.5	61	8.3	1	4	270	0.00	30.311 
03:15	19.5	19.5	19.5	61	8.3	1	4	338	0.00	30.313 
03:20	19.5	19.5	19.5	61	8.3	0	3	270	0.00	30.313 
03:25	19.5	19.5	19.5	61	8.3	1	5	270	0.00	30.313 
03:30	19.5	19.5	19.5	62	8.6	1	4	270	0.00	30.323 
03:35	19.5	19.5	19.5	62	8.6	0	3	338	0.00	30.323 
03:40	19.4	19.4	19.4	62	8.5	1	4	270	0.00	30.323 
03:45	19.4	19.4	19.4	62	8.5	1	5	270	0.00	30.322 
03:50	19.4	19.4	19.4	62	8.5	1	4	315	0.00	30.322 
03:55	19.4	19.4	19.4	62	8.5	1	5	292	0.00	30.322 
04:00	19.2	19.2	19.2	62	8.3	1	5	270	0.00	30.323 
04:05	19.2	19.2	19.2	62	8.3	1	4	270	0.00	30.323 
04:10	19.2	19.2	19.2	63	8.7	0	3	270	0.00	30.323 
04:15	19.2	19.2	19.2	63	8.7	2	5	315	0.00	30.325 
04:20	19.2	19.2	19.2	63	8.7	1	2	315	0.00	30.325 
04:25	19.1	19.1	19.1	63	8.6	1	5	292	0.00	30.325 
04:30	19.1	19.1	19.1	63	8.6	1	4	338	0.00	30.328 
04:35	19.1	19.1	19.1	63	8.6	1	3	270	0.00	30.328 
04:40	19.1	19.1	19.1	63	8.6	1	4	270	0.00	30.328 
04:45	19.1	19.1	19.1	63	8.6	1	4	338	0.00	30.328 
04:50	19.1	19.1	19.1	64	9.0	1	5	338	0.00	30.328 
04:55	18.9	18.9	18.9	63	8.4	1	4	315	0.00	30.328 
05:00	18.9	18.9	18.9	64	8.8	1	3	270	0.00	30.328 
05:05	18.9	18.9	18.9	64	8.8	1	7	248	0.00	30.328 
05:10	18.9	18.9	18.9	63	8.4	1	3	270	0.00	30.328 
05:15	18.9	18.9	18.9	64	8.8	1	3	270	0.00	30.326 
05:20	18.9	18.9	18.9	64	8.8	1	3	315	0.00	30.326 
05:25	18.9	18.9	18.9	64	8.8	1	3	270	0.00	30.326 
05:30	18.9	18.9	18.9	64	8.8	1	3	270	0.00	30.319 
05:35	18.8	18.8	18.8	64	8.7	1	3	338	0.00	30.319 
05:40	18.8	18.8	18.8	65	9.0	0	2	338	0.00	30.319 
05:45	18.8	18.8	18.8	66	9.4	0	2	338	0.00	30.316 
05:50	18.9	18.9	18.9	68	10.1	0	1	338	0.00	30.316 
05:55	18.8	18.8	18.8	69	10.3	0	2	338	0.00	30.316 
06:00	18.8	18.8	18.8	71	11.0	0	1	338	0.00	30.321 
06:05	18.8	18.8	18.8	72	11.3	0	1	338	0.00	30.321 
06:10	18.8	18.8	18.8	72	11.3	1	2	338	0.00	30.321 
06:15	18.6	18.6	18.6	72	11.1	0	1	338	0.00	30.316 
06:20	18.6	18.6	18.6	73	11.4	0	1	338	0.00	30.316 
06:25	18.6	18.6	18.6	73	11.4	0	2	338	0.00	30.316 
06:30	18.6	18.6	18.6	73	11.4	0	2	338	0.00	30.323 
06:35	18.6	18.6	18.6	74	11.7	0	1	338	0.00	30.323 
06:40	18.6	18.6	18.6	75	12.0	0	1	338	0.00	30.323 
06:45	18.6	18.6	18.6	75	12.0	1	2	338	0.00	30.328 
06:50	18.6	18.6	18.6	76	12.3	0	2	315	0.00	30.328 
06:55	18.6	18.6	18.6	76	12.3	1	3	0	0.00	30.328 
07:00	18.6	18.6	18.6	76	12.3	1	2	0	0.00	30.330 
07:05	18.4	18.4	18.4	76	12.1	0	2	338	0.00	30.330 
07:10	18.6	18.6	18.6	76	12.3	1	3	338	0.00	30.330 
07:15	18.6	18.6	18.6	76	12.3	1	3	248	0.00	30.331 
07:20	18.6	18.6	18.6	76	12.3	1	2	248	0.00	30.331 
07:25	18.4	18.4	18.4	76	12.1	0	2	248	0.00	30.331 
07:30	18.6	18.6	18.6	76	12.3	0	2	248	0.00	30.331 
07:35	18.6	18.6	18.6	76	12.3	0	1	248	0.00	30.331 
07:40	18.6	18.6	18.6	76	12.3	0	2	248	0.00	30.331 
07:45	18.6	18.6	18.6	76	12.3	0	2	248	0.00	30.334 
07:50	18.6	18.6	18.6	77	12.6	1	2	248	0.00	30.334 
07:55	18.6	18.6	18.6	77	12.6	1	2	248	0.00	30.334 
08:00	18.6	18.6	18.6	77	12.6	0	1	248	0.00	30.340 
08:05	18.8	18.8	18.8	77	12.8	0	2	248	0.00	30.340 
08:10	18.8	18.8	18.8	78	13.1	0	1	248	0.00	30.340 
08:15	18.8	18.8	18.8	78	13.1	0	2	248	0.00	30.344 
08:20	18.8	18.8	18.8	78	13.1	0	1	248	0.00	30.344 
08:25	18.9	18.9	18.9	79	13.5	0	1	248	0.00	30.344 
08:30	18.9	18.9	18.9	79	13.5	0	2	248	0.00	30.345 
08:35	19.1	19.1	19.1	80	14.0	1	2	248	0.00	30.345 
08:40	19.1	19.1	19.1	80	14.0	0	2	248	0.00	30.345 
08:45	19.2	19.2	19.2	80	14.1	1	2	248	0.00	30.351 
08:50	19.2	19.2	19.2	81	14.3	1	3	248	0.00	30.351 
08:55	19.4	19.4	19.4	81	14.5	1	3	248	0.00	30.351 
09:00	19.4	19.4	19.4	81	14.5	1	3	248	0.00	30.360 
09:05	19.5	19.5	19.5	81	14.6	0	2	248	0.00	30.360 
09:10	19.7	19.7	19.7	81	14.8	1	2	248	0.00	30.360 
09:15	19.7	19.7	19.7	81	14.8	1	2	248	0.00	30.362 
09:20	19.9	19.9	19.9	81	15.0	1	2	248	0.00	30.362 
09:25	20.0	20.0	20.0	80	14.8	1	3	248	0.00	30.362 
09:30	20.3	20.3	20.3	80	15.1	1	3	248	0.00	30.371 
09:35	20.5	20.5	20.5	80	15.3	1	3	248	0.00	30.371 
09:40	20.5	20.5	20.5	79	15.0	1	3	248	0.00	30.371 
09:45	20.6	20.6	20.6	78	14.8	1	4	248	0.00	30.377 
09:50	20.8	20.8	20.8	77	14.7	2	4	248	0.00	30.377 
09:55	21.0	21.0	21.0	76	14.6	2	5	225	0.00	30.377 
10:00	21.1	21.1	21.1	75	14.4	2	4	315	0.00	30.381 
10:05	21.1	21.1	21.1	74	14.1	2	4	248	0.00	30.381 
10:10	21.3	21.3	21.3	74	14.3	1	3	270	0.00	30.381 
10:15	21.4	21.4	21.4	73	14.1	2	5	270	0.00	30.377 
10:20	21.8	21.8	21.8	72	14.2	2	4	292	0.00	30.377 
10:25	21.8	21.8	21.8	71	13.9	3	6	270	0.00	30.377 
10:30	21.8	21.8	21.8	71	13.9	2	3	248	0.00	30.377 
10:35	21.9	21.9	21.9	70	13.6	3	5	248	0.00	30.377 
10:40	21.6	21.6	21.6	71	13.7	2	3	270	0.00	30.377 
10:45	21.3	21.3	21.3	72	13.7	2	5	270	0.00	30.387 
10:50	21.0	21.0	21.0	73	13.7	1	3	248	0.00	30.387 
10:55	21.0	21.0	21.0	74	14.0	2	5	248	0.00	30.387 
11:00	20.5	20.5	20.5	75	13.9	2	4	270	0.00	30.386 
11:05	20.3	20.3	20.3	76	14.0	2	5	248	0.00	30.386 
11:10	20.2	20.2	20.2	76	13.9	3	5	270	0.00	30.386 
11:15	20.2	20.2	20.2	77	14.2	2	5	248	0.00	30.392 
11:20	20.2	20.2	20.2	78	14.5	3	7	270	0.00	30.392 
11:25	19.9	19.9	19.9	77	13.9	3	4	270	0.00	30.392 
11:30	19.7	19.7	19.7	78	14.0	2	4	270	0.00	30.384 
11:35	19.9	19.9	19.9	78	14.2	2	3	248	0.00	30.384 
11:40	20.3	20.3	20.3	79	14.8	1	3	270	0.00	30.384 
11:45	20.5	20.5	20.5	77	14.5	3	4	270	0.00	30.384 
11:50	20.6	20.6	20.6	76	14.3	2	6	270	0.00	30.384 
11:55	21.1	21.1	21.1	76	14.7	2	5	248	0.00	30.384 
12:00	21.6	21.6	21.6	75	14.9	2	4	248	0.00	30.384 
12:05	21.8	21.8	21.8	73	14.5	2	5	270	0.00	30.384 
12:10	21.8	21.8	21.8	73	14.5	2	5	248	0.00	30.384 
12:15	21.8	21.8	21.8	72	14.2	2	5	270	0.00	30.383 
12:20	22.1	22.1	22.1	72	14.5	2	4	248	0.00	30.383 
12:25	22.1	22.1	22.1	71	14.2	2	7	292	0.00	30.383 
12:30	22.1	22.1	22.1	70	13.8	2	5	270	0.00	30.376 
12:35	22.1	22.1	22.1	70	13.8	2	5	292	0.00	30.376 
12:40	22.2	22.2	22.2	69	13.6	2	5	270	0.00	30.376 
12:45	22.4	22.4	22.4	70	14.1	2	4	292	0.00	30.366 
12:50	22.5	22.5	22.5	69	13.9	2	5	270	0.00	30.366 
12:55	22.2	22.2	22.2	68	13.3	3	5	270	0.00	30.366 
13:00	21.9	21.9	21.9	69	13.3	2	4	270	0.00	30.360 
13:05	22.4	22.4	22.4	70	14.1	2	4	270	0.00	30.360 
13:10	22.7	22.7	22.7	69	14.1	2	5	292	0.00	30.360 
13:15	22.7	22.7	22.7	68	13.8	2	5	270	0.00	30.353 
13:20	22.7	22.7	22.7	69	14.1	2	4	248	0.00	30.353 
13:25	23.0	23.0	23.0	68	14.0	2	4	248	0.00	30.353 
13:30	23.0	23.0	23.0	67	13.7	2	6	270	0.00	30.349 
13:35	22.7	22.7	22.7	67	13.4	2	4	270	0.00	30.349 
13:40	22.5	22.5	22.5	67	13.2	2	4	315	0.00	30.349 
13:45	22.5	22.5	22.5	67	13.2	2	5	292	0.00	30.344 
13:50	22.5	22.5	22.5	68	13.6	2	5	270	0.00	30.344 
13:55	22.5	22.5	22.5	67	13.2	2	4	315	0.00	30.344 
14:00	22.7	22.7	22.7	67	13.4	2	5	248	0.00	30.338 
14:05	22.9	22.9	22.9	67	13.6	2	5	248	0.00	30.338 
14:10	23.0	23.0	23.0	67	13.7	2	5	270	0.00	30.338 
14:15	23.2	23.2	23.2	67	13.9	2	4	270	0.00	30.330 
14:20	23.5	23.5	23.5	66	13.8	2	4	270	0.00	30.330 
14:25	23.9	23.9	23.9	67	14.6	1	4	248	0.00	30.330 
14:30	23.9	23.9	23.9	65	13.9	2	4	270	0.00	30.326 
14:35	23.6	23.6	23.6	66	13.9	1	5	248	0.00	30.326 
14:40	23.8	23.8	23.8	65	13.8	2	5	292	0.00	30.326 
14:45	23.8	23.8	23.8	65	13.8	1	3	292	0.00	30.325 
14:50	23.8	23.8	23.8	65	13.8	2	4	292	0.00	30.325 
14:55	23.8	23.8	23.8	65	13.8	2	4	292	0.00	30.325 
15:00	23.5	23.5	23.5	64	13.1	3	5	270	0.00	30.325 
15:05	23.5	23.5	23.5	65	13.5	2	4	248	0.00	30.325 
15:10	23.5	23.5	23.5	65	13.5	2	5	248	0.00	30.325 
15:15	23.8	23.8	23.8	69	15.1	3	5	248	0.00	30.329 
15:20	23.8	23.8	23.8	64	13.4	2	5	248	0.00	30.329 
15:25	24.1	24.1	24.1	64	13.7	1	3	248	0.00	30.329 
15:30	24.1	24.1	24.1	63	13.4	1	4	248	0.00	30.323 
15:35	23.9	23.9	23.9	63	13.2	1	4	270	0.00	30.323 
15:40	23.6	23.6	23.6	64	13.2	1	3	315	0.00	30.323 
15:45	23.5	23.5	23.5	63	12.8	2	5	248	0.00	30.329 
15:50	23.2	23.2	23.2	64	12.9	2	4	248	0.00	30.329 
15:55	23.0	23.0	23.0	64	12.7	2	4	248	0.00	30.329 
16:00	22.7	22.7	22.7	64	12.4	2	4	248	0.00	30.335 
16:05	22.5	22.5	22.5	64	12.2	2	4	248	0.00	30.335 
16:10	22.7	22.7	22.7	65	12.7	1	4	248	0.00	30.335 
16:15	23.0	23.0	23.0	64	12.7	1	3	248	0.00	30.329 
16:20	23.2	23.2	23.2	64	12.9	1	4	248	0.00	30.329 
16:25	23.0	23.0	23.0	64	12.7	1	5	248	0.00	30.329 
16:30	22.9	22.9	22.9	63	12.2	1	3	248	0.00	30.339 
16:35	22.7	22.7	22.7	63	12.0	2	3	248	0.00	30.339 
16:40	22.7	22.7	22.7	64	12.4	1	5	270	0.00	30.339 
16:45	22.5	22.5	22.5	63	11.8	1	3	270	0.00	30.333 
16:50	22.4	22.4	22.4	63	11.7	1	3	248	0.00	30.333 
16:55	22.4	22.4	22.4	64	12.1	1	3	248	0.00	30.333 
17:00	22.2	22.2	22.2	64	11.9	1	3	248	0.00	30.341 
17:05	22.2	22.2	22.2	64	11.9	1	4	248	0.00	30.341 
17:10	22.2	22.2	22.2	64	11.9	1	3	248	0.00	30.341 
17:15	22.1	22.1	22.1	64	11.8	1	5	248	0.00	30.342 
17:20	21.9	21.9	21.9	64	11.6	0	2	248	0.00	30.342 
17:25	21.8	21.8	21.8	64	11.5	1	2	248	0.00	30.342 
17:30	21.8	21.8	21.8	64	11.5	0	1	248	0.00	30.331 
17:35	21.6	21.6	21.6	65	11.7	0	1	248	0.00	30.331 
17:40	21.6	21.6	21.6	65	11.7	0	3	248	0.00	30.331 
17:45	21.4	21.4	21.4	65	11.5	0	2	248	0.00	30.332 
17:50	21.4	21.4	21.4	65	11.5	0	1	248	0.00	30.332 
17:55	21.4	21.4	21.4	65	11.5	0	2	248	0.00	30.332 
18:00	21.4	21.4	21.4	65	11.5	0	2	248	0.00	30.331 
18:05	21.4	21.4	21.4	65	11.5	0	2	248	0.00	30.331 
18:10	21.4	21.4	21.4	65	11.5	0	1	248	0.00	30.331 
18:15	21.3	21.3	21.3	66	11.7	0	1	248	0.00	30.332 
18:20	21.1	21.1	21.1	66	11.5	0	1	248	0.00	30.332 
18:25	21.0	21.0	21.0	66	11.5	0	0	---	0.00	30.332 
18:30	20.8	20.8	20.8	66	11.3	0	0	---	0.00	30.318 
18:35	20.6	20.6	20.6	66	11.1	0	0	---	0.00	30.318 
18:40	20.5	20.5	20.5	66	11.0	0	0	---	0.00	30.318 
18:45	20.5	20.5	20.5	66	11.0	0	0	---	0.00	30.325 
18:50	20.3	20.3	20.3	66	10.8	0	0	---	0.00	30.325 
18:55	20.3	20.3	20.3	65	10.4	0	0	---	0.00	30.325 
19:00	20.2	20.2	20.2	65	10.3	0	0	---	0.00	30.320 
19:05	20.0	20.0	20.0	65	10.2	0	0	---	0.00	30.320 
19:10	19.9	19.9	19.9	65	10.1	0	0	---	0.00	30.320 
19:15	19.5	19.5	19.5	66	10.0	0	0	---	0.00	30.318 
19:20	19.2	19.2	19.2	66	9.7	0	0	---	0.00	30.318 
19:25	19.1	19.1	19.1	66	9.6	0	0	---	0.00	30.318 
19:30	18.9	18.9	18.9	66	9.4	0	0	---	0.00	30.308 
19:35	18.9	18.9	18.9	66	9.4	0	1	248	0.00	30.308 
19:40	19.1	19.1	19.1	66	9.6	0	0	---	0.00	30.308 
19:45	19.2	19.2	19.2	66	9.7	0	2	248	0.00	30.290 
19:50	19.4	19.4	19.4	65	9.6	0	2	248	0.00	30.290 
19:55	19.5	19.5	19.5	65	9.7	0	0	---	0.00	30.290 
20:00	19.5	19.5	19.5	65	9.7	0	1	248	0.00	30.289 
20:05	19.5	19.5	19.5	65	9.7	0	1	248	0.00	30.289 
20:10	19.4	19.4	19.4	65	9.6	0	1	248	0.00	30.289 
20:15	19.4	19.4	19.4	65	9.6	0	2	248	0.00	30.286 
20:20	19.4	19.4	19.4	64	9.2	0	2	248	0.00	30.286 
20:25	19.4	19.4	19.4	64	9.2	0	1	248	0.00	30.286 
20:30	19.4	19.4	19.4	64	9.2	0	1	248	0.00	30.272 
20:35	19.5	19.5	19.5	63	9.0	0	1	248	0.00	30.272 
20:40	19.5	19.5	19.5	63	9.0	0	2	248	0.00	30.272 
20:45	19.7	19.7	19.7	62	8.8	0	2	248	0.00	30.263 
20:50	19.7	19.7	19.7	62	8.8	0	1	248	0.00	30.263 
20:55	19.7	19.7	19.7	62	8.8	0	1	248	0.00	30.263 
21:00	19.7	19.7	19.7	62	8.8	0	1	248	0.00	30.247 
21:05	19.7	19.7	19.7	62	8.8	0	2	248	0.00	30.247 
21:10	19.7	19.7	19.7	62	8.8	0	2	248	0.00	30.247 
21:15	19.7	19.7	19.7	62	8.8	0	1	248	0.00	30.231 
21:20	20.0	20.0	20.0	63	9.5	0	4	248	0.00	30.231 
21:25	20.2	20.2	20.2	62	9.3	0	2	45	0.00	30.231 
21:30	20.3	20.3	20.3	62	9.4	0	3	248	0.00	30.220 
21:35	20.5	20.5	20.5	62	9.6	1	4	248	0.00	30.220 
21:40	20.6	20.6	20.6	62	9.7	1	3	270	0.00	30.220 
21:45	20.8	20.8	20.8	62	9.9	0	2	248	0.00	30.209 
21:50	20.8	20.8	20.8	62	9.9	0	2	45	0.00	30.209 
21:55	20.8	20.8	20.8	62	9.9	0	2	45	0.00	30.209 
22:00	21.0	21.0	21.0	62	10.1	1	6	90	0.00	30.209 
22:05	21.0	21.0	21.0	62	10.1	1	3	22	0.00	30.209 
22:10	20.8	20.8	20.8	62	9.9	0	2	292	0.00	30.209 
22:15	20.8	20.8	20.8	63	10.2	0	1	292	0.00	30.204 
22:20	20.6	20.6	20.6	62	9.7	0	3	292	0.00	30.204 
22:25	20.6	20.6	20.6	62	9.7	0	2	292	0.00	30.204 
22:30	20.6	20.6	20.6	62	9.7	0	2	292	0.00	30.211 
22:35	20.6	20.6	20.6	62	9.7	0	2	248	0.00	30.211 
22:40	20.8	20.8	20.8	62	9.9	0	2	248	0.00	30.211 
22:45	20.8	20.8	20.8	62	9.9	0	2	248	0.00	30.202 
22:50	20.8	20.8	20.8	62	9.9	1	4	90	0.00	30.202 
22:55	21.0	21.0	21.0	63	10.4	0	2	90	0.00	30.202 
23:00	21.0	21.0	21.0	63	10.4	0	2	90	0.00	30.207 
23:05	21.0	21.0	21.0	62	10.1	0	3	270	0.00	30.207 
23:10	21.0	21.0	21.0	62	10.1	0	1	270	0.00	30.207 
23:15	21.0	21.0	21.0	62	10.1	0	2	270	0.00	30.211 
23:20	21.0	21.0	21.0	61	9.7	0	5	248	0.00	30.211 
23:25	21.1	21.1	21.1	60	9.4	1	6	270	0.00	30.211 
23:30	21.1	21.1	21.1	60	9.4	0	3	270	0.00	30.211 
23:35	21.1	21.1	21.1	59	9.0	1	3	270	0.00	30.211 
23:40	21.3	21.3	21.3	59	9.2	1	4	270	0.00	30.211 
23:45	21.3	21.3	21.3	59	9.2	0	2	248	0.00	30.218 
23:50	21.4	21.4	21.4	58	8.9	1	4	248	0.00	30.218 
23:55	21.4	21.4	21.4	59	9.3	1	3	248	0.00	30.218 

CoCoRaHS
IN-AL-39
A2 Web Hosting
Creative Commons License
GoDaddy
search engine by freefind advanced

loaded 2018-11-20 14:40:15 • last modified 2010-11-18 10:43:29
Privacy PolicyDisclaimer
• wx.awcolley.com is powered by PmWiki v.2002016 •
• all content (unless otherwise noted) © 2018 A W Colley